Alma, Alabama
Current Conditions -  °F | °C
As of 12:53 PM on Monday 20 Oct 2014 (Local Time) from KGZH Reporting Station
Clear Clear  
Wind Chill: 24°   Ceiling: Unl
Heat Index: 24°   Visibility: 10mi
Dew Point:   Wind: 3mph
Humidity: 35%   Direction: 330°NNW
Pressure: 30.04"   Gusts: NA
Location:  31.46°N, 87.75°W
Report Text: KGZH 201753Z AUTO 33003KT 10SM CLR 24/08 A3004 RMK AO2 SLP172 T02440078 10250 20067 58018
Loading
Personal Weather Stations






























Interactive Weather Map
Tropical Storm Tracking
New forecast layout! Learn more

10-Day Weather Forecast

Advertisements
Track Severe Weather on mobile